Alum Ridge, Virginia
Current Conditions -  °F | °C
As of 6:15 PM on Thursday 27 Nov 2014 (Local Time) from KBCB Reporting Station
Overcast Overcast  
Wind Chill: 18°   Ceiling: 2700
Heat Index: 30°   Visibility: 10mi
Dew Point: 27°   Wind: 17mph
Humidity: 86%   Direction: 300°WNW
Pressure: 30.17"   Gusts: 25mph
Location:  36.9207°N, 80.3192°W
Report Text: KBCB 272315Z AUTO 30015G22KT 10SM OVC027 M01/M03 A3017 RMK AO2
Loading
Personal Weather Stations






























Interactive Weather Map New forecast layout! Learn more

10-Day Weather Forecast

Advertisements
Track Severe Weather on mobile